الصفحة الرئيسية
METAR-TAF:

METAR-TAF

مطار :

Cerklje ob Krki, سلوفينيا

دائرة عرض: 45-53-59N, خط طول: 15-30-55E, ارتفاع: 157 متر

مراقبة الطقس الحالي

تاريخ ووقت الإصدار 35 دقيقة قبل الساعة 19:30UTC
رياح هادئة
درجة الحرارة 14°درجة مئوية
الرطوبة 77%
ضغط 1020 hPa
الرؤية 10 كم أو أكثر

METAR: LJCE 291930Z AUTO 00000KT 9999 NSC 14/10 Q1020

زمن: 22:05 (20:05 UTC)

توقعات

تاريخ ووقت الإصدار 3ساعات و 5 دقيقة قبل الساعة 17:00UTC
التوقعات صالحة من29 الساعة 18 UTC إلى 30 الساعة 03 UTC
ريح 5 عقدة من الشرق/الشمال الشرقي
الرؤية 10 كم أو أكثر
غيوم قليلة على ارتفاع 4500 قدم
نظرية الاحتمالات 30% :
مؤقت
من 29 الساعة 18 UTC إلى 29 الساعة 21 UTC
غيوم مفككة على ارتفاع 3500 قدم, مزن ركامية عمودية.
زخات من المطر

TAF: LJCE 291700Z 2918/3003 06005KT 9999 FEW045 PROB30 TEMPO 2918/2921 SHRA BKN035TCU

أرصاد الطقس والتوقعات من أكثر من 4000 مطار (تقارير الطقس للمطار METAR والتنبؤ بالطقس بالمطارTAF).

المحطات المتاحة هي النقط الصفراء والحمراء على الخريطة.

حرك المؤشر فوق النقطة لمعرفة اسم المحطة.

ثم انقر لمعرفة أرصاد وتوقعات الطقس.

لتغيير الخارطة: اضغط على الأزرار الخضراء مع رمز الصليب الأسود للتكبير. على الزر الأخضر مع شرطة للتصغير، أو على الأسهم الخضراء للخرائط المجاورة.


METAR-TAF: